Ada, Kansas
Current Conditions -  °F | °C
As of 1:53 AM on Friday 21 Nov 2014 (Local Time) from KSLN Reporting Station
Clear Clear  
Wind Chill: 26°   Ceiling: Unl
Heat Index: 26°   Visibility: 10mi
Dew Point: 17°   Wind: 3mph
Humidity: 69%   Direction: 50°NE
Pressure: 30.19"   Gusts: NA
Location:  39.1542°N, 97.5941°W
Report Text: KSLN 210753Z 05003KT 10SM CLR M03/M08 A3019 RMK AO2 SLP232 T10331083
Loading
Personal Weather Stations






























Interactive Weather Map New forecast layout! Learn more

10-Day Weather Forecast

Advertisements
Track Severe Weather on mobile